sensor_id;sensor_type;location;lat;lon;timestamp;P1;durP1;ratioP1;P2;durP2;ratioP2
29774;SDS011;16676;51.202;6.774;2023-01-29T00:00:00;21.98;;;10.65;;
29774;SDS011;16676;51.202;6.774;2023-01-29T00:04:02;22.58;;;10.05;;
29774;SDS011;16676;51.202;6.774;2023-01-29T00:08:05;21.35;;;10.40;;
29774;SDS011;16676;51.202;6.774;2023-01-29T00:12:07;19.80;;;10.35;;
29774;SDS011;16676;51.202;6.774;2023-01-29T00:16:09;19.77;;;10.35;;
29774;SDS011;16676;51.202;6.774;2023-01-29T00:20:11;19.67;;;10.13;;
29774;SDS011;16676;51.202;6.774;2023-01-29T00:24:15;17.25;;;10.02;;
29774;SDS011;16676;51.202;6.774;2023-01-29T00:28:17;24.08;;;11.38;;
29774;SDS011;16676;51.202;6.774;2023-01-29T00:32:19;20.80;;;10.68;;
29774;SDS011;16676;51.202;6.774;2023-01-29T00:36:22;16.95;;;9.65;;
29774;SDS011;16676;51.202;6.774;2023-01-29T00:40:25;15.88;;;9.30;;
29774;SDS011;16676;51.202;6.774;2023-01-29T00:44:47;16.00;;;8.75;;
29774;SDS011;16676;51.202;6.774;2023-01-29T00:48:57;18.15;;;9.95;;
29774;SDS011;16676;51.202;6.774;2023-01-29T00:52:59;19.70;;;9.85;;
29774;SDS011;16676;51.202;6.774;2023-01-29T00:57:02;20.17;;;10.52;;
29774;SDS011;16676;51.202;6.774;2023-01-29T01:01:04;18.75;;;9.77;;
29774;SDS011;16676;51.202;6.774;2023-01-29T01:05:07;17.83;;;10.18;;
29774;SDS011;16676;51.202;6.774;2023-01-29T01:09:13;17.13;;;9.57;;
29774;SDS011;16676;51.202;6.774;2023-01-29T01:13:33;16.63;;;10.00;;
29774;SDS011;16676;51.202;6.774;2023-01-29T01:17:36;16.40;;;9.85;;
29774;SDS011;16676;51.202;6.774;2023-01-29T01:21:38;18.45;;;9.93;;
29774;SDS011;16676;51.202;6.774;2023-01-29T01:25:44;20.98;;;8.88;;
29774;SDS011;16676;51.202;6.774;2023-01-29T01:29:48;17.50;;;9.77;;
29774;SDS011;16676;51.202;6.774;2023-01-29T01:33:49;17.77;;;9.60;;
29774;SDS011;16676;51.202;6.774;2023-01-29T01:37:53;20.08;;;9.48;;
29774;SDS011;16676;51.202;6.774;2023-01-29T01:41:55;17.52;;;9.55;;
29774;SDS011;16676;51.202;6.774;2023-01-29T01:45:58;18.13;;;9.70;;
29774;SDS011;16676;51.202;6.774;2023-01-29T01:50:02;15.30;;;9.05;;
29774;SDS011;16676;51.202;6.774;2023-01-29T01:54:08;17.23;;;10.20;;
29774;SDS011;16676;51.202;6.774;2023-01-29T01:58:14;16.80;;;9.45;;
29774;SDS011;16676;51.202;6.774;2023-01-29T02:02:24;16.40;;;9.77;;
29774;SDS011;16676;51.202;6.774;2023-01-29T02:06:45;15.98;;;9.38;;
29774;SDS011;16676;51.202;6.774;2023-01-29T02:11:13;16.05;;;8.95;;
29774;SDS011;16676;51.202;6.774;2023-01-29T02:15:25;15.07;;;8.70;;
29774;SDS011;16676;51.202;6.774;2023-01-29T02:19:31;16.08;;;9.32;;
29774;SDS011;16676;51.202;6.774;2023-01-29T02:23:49;17.48;;;9.85;;
29774;SDS011;16676;51.202;6.774;2023-01-29T02:28:10;13.20;;;8.40;;
29774;SDS011;16676;51.202;6.774;2023-01-29T02:32:22;15.68;;;9.30;;
29774;SDS011;16676;51.202;6.774;2023-01-29T02:36:32;12.57;;;8.90;;
29774;SDS011;16676;51.202;6.774;2023-01-29T02:44:46;15.60;;;9.00;;
29774;SDS011;16676;51.202;6.774;2023-01-29T02:48:53;14.07;;;8.52;;
29774;SDS011;16676;51.202;6.774;2023-01-29T02:53:00;14.87;;;8.83;;
29774;SDS011;16676;51.202;6.774;2023-01-29T02:57:08;14.32;;;8.57;;
29774;SDS011;16676;51.202;6.774;2023-01-29T03:01:18;13.68;;;9.00;;
29774;SDS011;16676;51.202;6.774;2023-01-29T03:05:24;13.95;;;8.60;;
29774;SDS011;16676;51.202;6.774;2023-01-29T03:09:29;17.08;;;9.13;;
29774;SDS011;16676;51.202;6.774;2023-01-29T03:13:35;13.68;;;8.85;;
29774;SDS011;16676;51.202;6.774;2023-01-29T03:21:50;13.20;;;8.57;;
29774;SDS011;16676;51.202;6.774;2023-01-29T03:25:59;12.43;;;8.13;;
29774;SDS011;16676;51.202;6.774;2023-01-29T03:30:18;15.35;;;9.00;;
29774;SDS011;16676;51.202;6.774;2023-01-29T03:34:42;13.73;;;8.55;;
29774;SDS011;16676;51.202;6.774;2023-01-29T03:38:47;13.00;;;8.80;;
29774;SDS011;16676;51.202;6.774;2023-01-29T03:42:52;13.27;;;8.73;;
29774;SDS011;16676;51.202;6.774;2023-01-29T03:47:07;11.80;;;8.00;;
29774;SDS011;16676;51.202;6.774;2023-01-29T03:51:21;13.23;;;8.55;;
29774;SDS011;16676;51.202;6.774;2023-01-29T03:55:29;12.15;;;8.50;;
29774;SDS011;16676;51.202;6.774;2023-01-29T03:59:37;12.55;;;8.35;;
29774;SDS011;16676;51.202;6.774;2023-01-29T04:03:47;16.33;;;8.60;;
29774;SDS011;16676;51.202;6.774;2023-01-29T04:07:55;11.57;;;7.83;;
29774;SDS011;16676;51.202;6.774;2023-01-29T04:12:03;11.13;;;8.18;;
29774;SDS011;16676;51.202;6.774;2023-01-29T04:16:09;12.30;;;8.48;;
29774;SDS011;16676;51.202;6.774;2023-01-29T04:20:16;11.98;;;7.72;;
29774;SDS011;16676;51.202;6.774;2023-01-29T04:24:20;14.45;;;8.57;;
29774;SDS011;16676;51.202;6.774;2023-01-29T04:28:24;11.95;;;7.95;;
29774;SDS011;16676;51.202;6.774;2023-01-29T04:32:31;11.50;;;8.05;;
29774;SDS011;16676;51.202;6.774;2023-01-29T04:36:40;13.20;;;7.97;;
29774;SDS011;16676;51.202;6.774;2023-01-29T04:40:54;11.20;;;8.10;;
29774;SDS011;16676;51.202;6.774;2023-01-29T04:45:03;15.60;;;8.85;;
29774;SDS011;16676;51.202;6.774;2023-01-29T04:49:13;10.95;;;7.75;;
29774;SDS011;16676;51.202;6.774;2023-01-29T04:53:20;12.93;;;8.63;;
29774;SDS011;16676;51.202;6.774;2023-01-29T04:57:30;12.27;;;8.35;;
29774;SDS011;16676;51.202;6.774;2023-01-29T05:01:39;12.65;;;8.27;;
29774;SDS011;16676;51.202;6.774;2023-01-29T05:05:42;13.55;;;8.23;;
29774;SDS011;16676;51.202;6.774;2023-01-29T05:09:47;10.98;;;7.88;;
29774;SDS011;16676;51.202;6.774;2023-01-29T05:13:51;12.15;;;8.20;;
29774;SDS011;16676;51.202;6.774;2023-01-29T05:17:54;12.77;;;8.10;;
29774;SDS011;16676;51.202;6.774;2023-01-29T05:22:01;11.98;;;8.27;;
29774;SDS011;16676;51.202;6.774;2023-01-29T05:26:05;13.93;;;8.18;;
29774;SDS011;16676;51.202;6.774;2023-01-29T05:30:09;13.10;;;8.32;;
29774;SDS011;16676;51.202;6.774;2023-01-29T05:34:12;13.15;;;8.40;;
29774;SDS011;16676;51.202;6.774;2023-01-29T05:38:13;12.15;;;8.20;;
29774;SDS011;16676;51.202;6.774;2023-01-29T05:42:16;14.32;;;8.15;;
29774;SDS011;16676;51.202;6.774;2023-01-29T05:46:19;10.90;;;8.00;;
29774;SDS011;16676;51.202;6.774;2023-01-29T05:50:21;11.52;;;8.23;;
29774;SDS011;16676;51.202;6.774;2023-01-29T05:54:23;10.90;;;7.85;;
29774;SDS011;16676;51.202;6.774;2023-01-29T05:58:25;11.93;;;8.00;;
29774;SDS011;16676;51.202;6.774;2023-01-29T06:02:29;11.57;;;8.60;;
29774;SDS011;16676;51.202;6.774;2023-01-29T06:06:32;11.68;;;7.60;;
29774;SDS011;16676;51.202;6.774;2023-01-29T06:10:34;11.77;;;7.88;;
29774;SDS011;16676;51.202;6.774;2023-01-29T06:14:36;10.98;;;7.82;;
29774;SDS011;16676;51.202;6.774;2023-01-29T06:18:39;11.32;;;7.63;;
29774;SDS011;16676;51.202;6.774;2023-01-29T06:22:42;11.82;;;7.97;;
29774;SDS011;16676;51.202;6.774;2023-01-29T06:26:44;10.65;;;7.93;;
29774;SDS011;16676;51.202;6.774;2023-01-29T06:30:46;12.45;;;7.95;;
29774;SDS011;16676;51.202;6.774;2023-01-29T06:34:49;10.05;;;7.20;;
29774;SDS011;16676;51.202;6.774;2023-01-29T06:38:52;11.90;;;8.13;;
29774;SDS011;16676;51.202;6.774;2023-01-29T06:42:54;14.63;;;8.50;;
29774;SDS011;16676;51.202;6.774;2023-01-29T06:46:56;11.00;;;7.90;;
29774;SDS011;16676;51.202;6.774;2023-01-29T06:51:01;11.85;;;8.05;;
29774;SDS011;16676;51.202;6.774;2023-01-29T06:55:04;11.55;;;7.82;;
29774;SDS011;16676;51.202;6.774;2023-01-29T06:59:07;12.00;;;8.15;;
29774;SDS011;16676;51.202;6.774;2023-01-29T07:03:09;12.63;;;8.80;;
29774;SDS011;16676;51.202;6.774;2023-01-29T07:07:12;12.32;;;8.38;;
29774;SDS011;16676;51.202;6.774;2023-01-29T07:11:14;12.30;;;8.32;;
29774;SDS011;16676;51.202;6.774;2023-01-29T07:15:16;11.65;;;8.18;;
29774;SDS011;16676;51.202;6.774;2023-01-29T07:19:20;14.07;;;8.50;;
29774;SDS011;16676;51.202;6.774;2023-01-29T07:23:24;9.95;;;7.82;;
29774;SDS011;16676;51.202;6.774;2023-01-29T07:27:26;13.02;;;8.60;;
29774;SDS011;16676;51.202;6.774;2023-01-29T07:31:28;10.38;;;7.63;;
29774;SDS011;16676;51.202;6.774;2023-01-29T07:35:30;10.50;;;7.82;;
29774;SDS011;16676;51.202;6.774;2023-01-29T07:39:34;12.07;;;8.55;;
29774;SDS011;16676;51.202;6.774;2023-01-29T07:43:35;11.20;;;8.35;;
29774;SDS011;16676;51.202;6.774;2023-01-29T07:47:37;10.07;;;7.82;;
29774;SDS011;16676;51.202;6.774;2023-01-29T07:51:39;10.50;;;8.13;;
29774;SDS011;16676;51.202;6.774;2023-01-29T07:55:43;11.25;;;8.20;;
29774;SDS011;16676;51.202;6.774;2023-01-29T07:59:45;10.40;;;8.10;;
29774;SDS011;16676;51.202;6.774;2023-01-29T08:03:47;10.77;;;8.13;;
29774;SDS011;16676;51.202;6.774;2023-01-29T08:07:51;10.82;;;8.63;;
29774;SDS011;16676;51.202;6.774;2023-01-29T08:11:55;10.98;;;8.15;;
29774;SDS011;16676;51.202;6.774;2023-01-29T08:16:00;11.35;;;8.40;;
29774;SDS011;16676;51.202;6.774;2023-01-29T08:20:03;13.20;;;8.50;;
29774;SDS011;16676;51.202;6.774;2023-01-29T08:24:06;11.95;;;8.52;;
29774;SDS011;16676;51.202;6.774;2023-01-29T08:28:09;12.13;;;8.23;;
29774;SDS011;16676;51.202;6.774;2023-01-29T08:32:11;12.95;;;8.95;;
29774;SDS011;16676;51.202;6.774;2023-01-29T08:36:13;12.80;;;8.70;;
29774;SDS011;16676;51.202;6.774;2023-01-29T08:40:16;10.98;;;8.07;;
29774;SDS011;16676;51.202;6.774;2023-01-29T08:44:19;10.85;;;8.30;;
29774;SDS011;16676;51.202;6.774;2023-01-29T08:48:21;11.35;;;8.35;;
29774;SDS011;16676;51.202;6.774;2023-01-29T08:52:24;10.93;;;8.27;;
29774;SDS011;16676;51.202;6.774;2023-01-29T08:56:26;11.35;;;8.38;;
29774;SDS011;16676;51.202;6.774;2023-01-29T09:00:29;11.52;;;8.90;;
29774;SDS011;16676;51.202;6.774;2023-01-29T09:04:31;10.82;;;8.15;;
29774;SDS011;16676;51.202;6.774;2023-01-29T09:08:33;11.45;;;8.60;;
29774;SDS011;16676;51.202;6.774;2023-01-29T09:12:35;12.40;;;8.52;;
29774;SDS011;16676;51.202;6.774;2023-01-29T09:16:39;10.60;;;8.30;;
29774;SDS011;16676;51.202;6.774;2023-01-29T09:20:41;37.20;;;24.48;;
29774;SDS011;16676;51.202;6.774;2023-01-29T09:24:43;38.67;;;23.75;;
29774;SDS011;16676;51.202;6.774;2023-01-29T09:28:45;33.35;;;22.83;;
29774;SDS011;16676;51.202;6.774;2023-01-29T09:32:48;32.40;;;20.80;;
29774;SDS011;16676;51.202;6.774;2023-01-29T09:36:50;26.17;;;18.13;;
29774;SDS011;16676;51.202;6.774;2023-01-29T09:40:54;23.67;;;17.73;;
29774;SDS011;16676;51.202;6.774;2023-01-29T09:45:04;28.20;;;18.35;;
29774;SDS011;16676;51.202;6.774;2023-01-29T09:49:16;25.92;;;18.58;;
29774;SDS011;16676;51.202;6.774;2023-01-29T09:53:26;26.90;;;18.48;;
29774;SDS011;16676;51.202;6.774;2023-01-29T09:57:33;26.55;;;18.58;;
29774;SDS011;16676;51.202;6.774;2023-01-29T10:01:48;28.33;;;19.58;;
29774;SDS011;16676;51.202;6.774;2023-01-29T10:06:07;31.58;;;19.52;;
29774;SDS011;16676;51.202;6.774;2023-01-29T10:10:25;30.08;;;18.67;;
29774;SDS011;16676;51.202;6.774;2023-01-29T10:14:38;23.58;;;17.15;;
29774;SDS011;16676;51.202;6.774;2023-01-29T10:23:32;25.95;;;17.20;;
29774;SDS011;16676;51.202;6.774;2023-01-29T10:27:38;23.33;;;15.90;;
29774;SDS011;16676;51.202;6.774;2023-01-29T10:31:43;21.25;;;15.93;;
29774;SDS011;16676;51.202;6.774;2023-01-29T10:35:50;24.65;;;16.67;;
29774;SDS011;16676;51.202;6.774;2023-01-29T10:39:59;24.83;;;15.15;;
29774;SDS011;16676;51.202;6.774;2023-01-29T10:44:04;21.63;;;14.95;;
29774;SDS011;16676;51.202;6.774;2023-01-29T10:48:23;20.30;;;15.25;;
29774;SDS011;16676;51.202;6.774;2023-01-29T10:52:43;23.33;;;14.20;;
29774;SDS011;16676;51.202;6.774;2023-01-29T10:57:04;22.63;;;13.85;;
29774;SDS011;16676;51.202;6.774;2023-01-29T11:01:15;22.58;;;14.38;;
29774;SDS011;16676;51.202;6.774;2023-01-29T11:05:18;21.80;;;13.88;;
29774;SDS011;16676;51.202;6.774;2023-01-29T11:09:27;19.17;;;14.05;;
29774;SDS011;16676;51.202;6.774;2023-01-29T11:13:37;18.33;;;13.52;;
29774;SDS011;16676;51.202;6.774;2023-01-29T11:22:03;18.60;;;13.13;;
29774;SDS011;16676;51.202;6.774;2023-01-29T11:26:09;17.42;;;12.95;;
29774;SDS011;16676;51.202;6.774;2023-01-29T11:30:16;16.45;;;12.40;;
29774;SDS011;16676;51.202;6.774;2023-01-29T11:34:23;21.00;;;12.70;;
29774;SDS011;16676;51.202;6.774;2023-01-29T11:38:27;16.75;;;12.13;;
29774;SDS011;16676;51.202;6.774;2023-01-29T11:42:30;15.95;;;11.88;;
29774;SDS011;16676;51.202;6.774;2023-01-29T11:46:34;16.75;;;12.43;;
29774;SDS011;16676;51.202;6.774;2023-01-29T11:50:39;18.70;;;12.93;;
29774;SDS011;16676;51.202;6.774;2023-01-29T11:54:43;17.60;;;11.60;;
29774;SDS011;16676;51.202;6.774;2023-01-29T11:58:50;16.30;;;11.93;;
29774;SDS011;16676;51.202;6.774;2023-01-29T12:02:56;13.35;;;11.50;;
29774;SDS011;16676;51.202;6.774;2023-01-29T12:07:03;13.68;;;10.95;;
29774;SDS011;16676;51.202;6.774;2023-01-29T12:11:13;15.32;;;10.93;;
29774;SDS011;16676;51.202;6.774;2023-01-29T12:15:24;14.57;;;10.25;;
29774;SDS011;16676;51.202;6.774;2023-01-29T12:19:28;17.05;;;11.15;;
29774;SDS011;16676;51.202;6.774;2023-01-29T12:23:37;14.90;;;10.35;;
29774;SDS011;16676;51.202;6.774;2023-01-29T12:27:45;16.08;;;11.07;;
29774;SDS011;16676;51.202;6.774;2023-01-29T12:31:54;12.85;;;10.32;;
29774;SDS011;16676;51.202;6.774;2023-01-29T12:36:10;18.15;;;10.15;;
29774;SDS011;16676;51.202;6.774;2023-01-29T12:40:17;15.57;;;10.65;;
29774;SDS011;16676;51.202;6.774;2023-01-29T12:44:23;15.32;;;11.18;;
29774;SDS011;16676;51.202;6.774;2023-01-29T12:48:32;16.23;;;11.40;;
29774;SDS011;16676;51.202;6.774;2023-01-29T12:52:39;15.63;;;10.90;;
29774;SDS011;16676;51.202;6.774;2023-01-29T12:56:45;18.40;;;11.03;;
29774;SDS011;16676;51.202;6.774;2023-01-29T13:00:50;16.27;;;11.30;;
29774;SDS011;16676;51.202;6.774;2023-01-29T13:04:55;17.02;;;11.05;;
29774;SDS011;16676;51.202;6.774;2023-01-29T13:09:01;16.95;;;11.93;;
29774;SDS011;16676;51.202;6.774;2023-01-29T13:13:11;19.27;;;12.23;;
29774;SDS011;16676;51.202;6.774;2023-01-29T13:17:18;21.20;;;12.52;;
29774;SDS011;16676;51.202;6.774;2023-01-29T13:21:25;19.88;;;12.02;;
29774;SDS011;16676;51.202;6.774;2023-01-29T13:25:32;17.17;;;12.00;;
29774;SDS011;16676;51.202;6.774;2023-01-29T13:29:34;18.10;;;10.95;;
29774;SDS011;16676;51.202;6.774;2023-01-29T13:33:36;14.43;;;10.43;;
29774;SDS011;16676;51.202;6.774;2023-01-29T13:37:41;11.75;;;9.75;;
29774;SDS011;16676;51.202;6.774;2023-01-29T13:41:50;13.95;;;9.90;;
29774;SDS011;16676;51.202;6.774;2023-01-29T13:45:53;13.93;;;10.15;;
29774;SDS011;16676;51.202;6.774;2023-01-29T13:49:56;12.45;;;9.43;;
29774;SDS011;16676;51.202;6.774;2023-01-29T13:54:02;13.20;;;10.57;;
29774;SDS011;16676;51.202;6.774;2023-01-29T13:58:09;28.90;;;9.55;;
29774;SDS011;16676;51.202;6.774;2023-01-29T14:02:20;14.15;;;9.45;;
29774;SDS011;16676;51.202;6.774;2023-01-29T14:15:35;12.52;;;9.07;;
29774;SDS011;16676;51.202;6.774;2023-01-29T14:19:44;12.68;;;9.05;;
29774;SDS011;16676;51.202;6.774;2023-01-29T14:23:47;13.65;;;9.02;;
29774;SDS011;16676;51.202;6.774;2023-01-29T14:27:51;11.38;;;8.95;;
29774;SDS011;16676;51.202;6.774;2023-01-29T14:31:56;15.05;;;8.57;;
29774;SDS011;16676;51.202;6.774;2023-01-29T14:36:02;13.57;;;8.30;;
29774;SDS011;16676;51.202;6.774;2023-01-29T14:40:12;12.38;;;8.45;;
29774;SDS011;16676;51.202;6.774;2023-01-29T14:49:11;10.95;;;8.25;;
29774;SDS011;16676;51.202;6.774;2023-01-29T14:53:54;12.63;;;8.10;;
29774;SDS011;16676;51.202;6.774;2023-01-29T14:58:01;12.98;;;8.05;;
29774;SDS011;16676;51.202;6.774;2023-01-29T15:02:09;11.40;;;7.80;;
29774;SDS011;16676;51.202;6.774;2023-01-29T15:06:19;11.88;;;8.55;;
29774;SDS011;16676;51.202;6.774;2023-01-29T15:10:31;10.10;;;7.80;;
29774;SDS011;16676;51.202;6.774;2023-01-29T15:14:40;10.85;;;7.65;;
29774;SDS011;16676;51.202;6.774;2023-01-29T15:18:46;8.98;;;7.35;;
29774;SDS011;16676;51.202;6.774;2023-01-29T15:22:52;10.45;;;7.60;;
29774;SDS011;16676;51.202;6.774;2023-01-29T15:26:54;9.23;;;6.90;;
29774;SDS011;16676;51.202;6.774;2023-01-29T15:30:57;9.85;;;7.60;;
29774;SDS011;16676;51.202;6.774;2023-01-29T15:35:05;9.88;;;7.95;;
29774;SDS011;16676;51.202;6.774;2023-01-29T15:39:14;9.68;;;7.18;;
29774;SDS011;16676;51.202;6.774;2023-01-29T15:43:26;10.43;;;7.45;;
29774;SDS011;16676;51.202;6.774;2023-01-29T15:47:29;8.45;;;7.40;;
29774;SDS011;16676;51.202;6.774;2023-01-29T15:51:33;12.27;;;7.15;;
29774;SDS011;16676;51.202;6.774;2023-01-29T15:55:35;14.80;;;8.15;;
29774;SDS011;16676;51.202;6.774;2023-01-29T15:59:39;8.88;;;7.43;;
29774;SDS011;16676;51.202;6.774;2023-01-29T16:03:45;9.30;;;7.32;;
29774;SDS011;16676;51.202;6.774;2023-01-29T16:07:50;10.32;;;7.03;;
29774;SDS011;16676;51.202;6.774;2023-01-29T16:11:56;10.50;;;7.47;;
29774;SDS011;16676;51.202;6.774;2023-01-29T16:16:01;10.55;;;7.80;;
29774;SDS011;16676;51.202;6.774;2023-01-29T16:20:05;9.85;;;7.10;;
29774;SDS011;16676;51.202;6.774;2023-01-29T16:24:20;10.70;;;7.30;;
29774;SDS011;16676;51.202;6.774;2023-01-29T16:28:24;11.18;;;7.22;;
29774;SDS011;16676;51.202;6.774;2023-01-29T16:32:28;10.57;;;7.43;;
29774;SDS011;16676;51.202;6.774;2023-01-29T16:36:30;12.27;;;6.85;;
29774;SDS011;16676;51.202;6.774;2023-01-29T16:40:33;11.73;;;7.63;;
29774;SDS011;16676;51.202;6.774;2023-01-29T16:44:37;9.15;;;7.13;;
29774;SDS011;16676;51.202;6.774;2023-01-29T16:48:41;9.48;;;6.90;;
29774;SDS011;16676;51.202;6.774;2023-01-29T16:52:43;12.00;;;6.95;;
29774;SDS011;16676;51.202;6.774;2023-01-29T16:56:57;9.40;;;6.43;;
29774;SDS011;16676;51.202;6.774;2023-01-29T17:01:02;30.35;;;19.63;;
29774;SDS011;16676;51.202;6.774;2023-01-29T17:05:09;29.58;;;19.48;;
29774;SDS011;16676;51.202;6.774;2023-01-29T17:09:20;25.13;;;17.63;;
29774;SDS011;16676;51.202;6.774;2023-01-29T17:13:26;27.08;;;17.08;;
29774;SDS011;16676;51.202;6.774;2023-01-29T17:17:31;24.88;;;15.85;;
29774;SDS011;16676;51.202;6.774;2023-01-29T17:21:36;29.05;;;18.13;;
29774;SDS011;16676;51.202;6.774;2023-01-29T17:25:38;69.93;;;34.47;;
29774;SDS011;16676;51.202;6.774;2023-01-29T17:29:41;81.25;;;39.83;;
29774;SDS011;16676;51.202;6.774;2023-01-29T17:33:43;82.13;;;39.72;;
29774;SDS011;16676;51.202;6.774;2023-01-29T17:37:47;83.95;;;38.83;;
29774;SDS011;16676;51.202;6.774;2023-01-29T17:41:50;78.15;;;36.40;;
29774;SDS011;16676;51.202;6.774;2023-01-29T17:45:54;65.82;;;33.58;;
29774;SDS011;16676;51.202;6.774;2023-01-29T17:49:56;60.85;;;31.13;;
29774;SDS011;16676;51.202;6.774;2023-01-29T17:53:59;49.22;;;27.00;;
29774;SDS011;16676;51.202;6.774;2023-01-29T17:58:01;48.45;;;25.73;;
29774;SDS011;16676;51.202;6.774;2023-01-29T18:02:03;44.85;;;23.98;;
29774;SDS011;16676;51.202;6.774;2023-01-29T18:06:05;40.60;;;22.75;;
29774;SDS011;16676;51.202;6.774;2023-01-29T18:10:12;39.88;;;21.63;;
29774;SDS011;16676;51.202;6.774;2023-01-29T18:14:17;38.22;;;20.05;;
29774;SDS011;16676;51.202;6.774;2023-01-29T18:18:20;36.97;;;20.05;;
29774;SDS011;16676;51.202;6.774;2023-01-29T18:22:24;44.97;;;21.73;;
29774;SDS011;16676;51.202;6.774;2023-01-29T18:26:27;55.53;;;24.13;;
29774;SDS011;16676;51.202;6.774;2023-01-29T18:30:29;54.00;;;23.92;;
29774;SDS011;16676;51.202;6.774;2023-01-29T18:34:31;55.70;;;25.08;;
29774;SDS011;16676;51.202;6.774;2023-01-29T18:38:33;50.92;;;24.30;;
29774;SDS011;16676;51.202;6.774;2023-01-29T18:42:36;51.78;;;23.90;;
29774;SDS011;16676;51.202;6.774;2023-01-29T18:46:38;47.20;;;23.23;;
29774;SDS011;16676;51.202;6.774;2023-01-29T18:50:40;46.45;;;22.20;;
29774;SDS011;16676;51.202;6.774;2023-01-29T18:54:42;43.15;;;21.33;;
29774;SDS011;16676;51.202;6.774;2023-01-29T18:58:45;44.00;;;20.20;;
29774;SDS011;16676;51.202;6.774;2023-01-29T19:02:47;40.67;;;19.58;;
29774;SDS011;16676;51.202;6.774;2023-01-29T19:06:50;47.65;;;20.52;;
29774;SDS011;16676;51.202;6.774;2023-01-29T19:10:51;39.25;;;19.65;;
29774;SDS011;16676;51.202;6.774;2023-01-29T19:14:55;42.10;;;18.65;;
29774;SDS011;16676;51.202;6.774;2023-01-29T19:18:57;38.63;;;18.52;;
29774;SDS011;16676;51.202;6.774;2023-01-29T19:22:59;35.97;;;17.63;;
29774;SDS011;16676;51.202;6.774;2023-01-29T19:27:00;33.92;;;16.55;;
29774;SDS011;16676;51.202;6.774;2023-01-29T19:31:05;36.78;;;17.50;;
29774;SDS011;16676;51.202;6.774;2023-01-29T19:35:08;32.33;;;16.58;;
29774;SDS011;16676;51.202;6.774;2023-01-29T19:39:10;34.22;;;16.70;;
29774;SDS011;16676;51.202;6.774;2023-01-29T19:43:14;32.88;;;15.88;;
29774;SDS011;16676;51.202;6.774;2023-01-29T19:47:18;31.27;;;15.27;;
29774;SDS011;16676;51.202;6.774;2023-01-29T19:51:20;25.73;;;14.05;;
29774;SDS011;16676;51.202;6.774;2023-01-29T19:55:22;32.92;;;15.35;;
29774;SDS011;16676;51.202;6.774;2023-01-29T19:59:24;26.38;;;13.93;;
29774;SDS011;16676;51.202;6.774;2023-01-29T20:03:27;25.95;;;14.23;;
29774;SDS011;16676;51.202;6.774;2023-01-29T20:07:30;31.67;;;14.60;;
29774;SDS011;16676;51.202;6.774;2023-01-29T20:11:32;22.63;;;12.55;;
29774;SDS011;16676;51.202;6.774;2023-01-29T20:15:34;24.35;;;13.48;;
29774;SDS011;16676;51.202;6.774;2023-01-29T20:19:37;28.38;;;13.95;;
29774;SDS011;16676;51.202;6.774;2023-01-29T20:23:39;27.83;;;13.05;;
29774;SDS011;16676;51.202;6.774;2023-01-29T20:27:42;26.75;;;13.63;;
29774;SDS011;16676;51.202;6.774;2023-01-29T20:31:44;26.13;;;13.30;;
29774;SDS011;16676;51.202;6.774;2023-01-29T20:35:51;25.27;;;12.57;;
29774;SDS011;16676;51.202;6.774;2023-01-29T20:39:53;24.30;;;13.02;;
29774;SDS011;16676;51.202;6.774;2023-01-29T20:43:55;25.40;;;13.02;;
29774;SDS011;16676;51.202;6.774;2023-01-29T20:47:57;26.58;;;12.73;;
29774;SDS011;16676;51.202;6.774;2023-01-29T20:52:01;26.73;;;12.02;;
29774;SDS011;16676;51.202;6.774;2023-01-29T20:56:03;26.95;;;11.90;;
29774;SDS011;16676;51.202;6.774;2023-01-29T21:00:06;28.20;;;12.20;;
29774;SDS011;16676;51.202;6.774;2023-01-29T21:04:09;25.70;;;11.48;;
29774;SDS011;16676;51.202;6.774;2023-01-29T21:08:12;22.50;;;10.88;;
29774;SDS011;16676;51.202;6.774;2023-01-29T21:12:14;22.55;;;10.77;;
29774;SDS011;16676;51.202;6.774;2023-01-29T21:16:16;26.13;;;10.55;;
29774;SDS011;16676;51.202;6.774;2023-01-29T21:20:18;27.13;;;10.98;;
29774;SDS011;16676;51.202;6.774;2023-01-29T21:24:21;26.05;;;10.55;;
29774;SDS011;16676;51.202;6.774;2023-01-29T21:28:24;25.77;;;10.63;;
29774;SDS011;16676;51.202;6.774;2023-01-29T21:32:26;22.17;;;10.43;;
29774;SDS011;16676;51.202;6.774;2023-01-29T21:36:28;20.23;;;9.93;;
29774;SDS011;16676;51.202;6.774;2023-01-29T21:40:31;18.88;;;9.82;;
29774;SDS011;16676;51.202;6.774;2023-01-29T21:44:33;21.27;;;10.07;;
29774;SDS011;16676;51.202;6.774;2023-01-29T21:48:36;23.63;;;9.27;;
29774;SDS011;16676;51.202;6.774;2023-01-29T21:52:39;18.02;;;9.35;;
29774;SDS011;16676;51.202;6.774;2023-01-29T21:56:42;20.98;;;9.57;;
29774;SDS011;16676;51.202;6.774;2023-01-29T22:00:44;16.55;;;9.10;;
29774;SDS011;16676;51.202;6.774;2023-01-29T22:04:49;19.42;;;9.70;;
29774;SDS011;16676;51.202;6.774;2023-01-29T22:08:56;16.92;;;7.78;;
29774;SDS011;16676;51.202;6.774;2023-01-29T22:12:59;17.30;;;8.48;;
29774;SDS011;16676;51.202;6.774;2023-01-29T22:17:01;14.70;;;8.32;;
29774;SDS011;16676;51.202;6.774;2023-01-29T22:21:05;14.65;;;7.80;;
29774;SDS011;16676;51.202;6.774;2023-01-29T22:25:07;13.38;;;8.13;;
29774;SDS011;16676;51.202;6.774;2023-01-29T22:29:11;15.88;;;8.52;;
29774;SDS011;16676;51.202;6.774;2023-01-29T22:33:16;12.05;;;7.20;;
29774;SDS011;16676;51.202;6.774;2023-01-29T22:37:18;14.23;;;7.85;;
29774;SDS011;16676;51.202;6.774;2023-01-29T22:41:20;13.75;;;7.43;;
29774;SDS011;16676;51.202;6.774;2023-01-29T22:45:23;15.93;;;7.78;;
29774;SDS011;16676;51.202;6.774;2023-01-29T22:49:26;13.98;;;7.88;;
29774;SDS011;16676;51.202;6.774;2023-01-29T22:53:29;16.92;;;8.43;;
29774;SDS011;16676;51.202;6.774;2023-01-29T22:57:31;13.68;;;7.18;;
29774;SDS011;16676;51.202;6.774;2023-01-29T23:01:34;16.15;;;8.45;;
29774;SDS011;16676;51.202;6.774;2023-01-29T23:05:36;13.65;;;7.18;;
29774;SDS011;16676;51.202;6.774;2023-01-29T23:09:38;12.57;;;7.25;;
29774;SDS011;16676;51.202;6.774;2023-01-29T23:13:41;12.82;;;7.00;;
29774;SDS011;16676;51.202;6.774;2023-01-29T23:17:45;10.82;;;6.53;;
29774;SDS011;16676;51.202;6.774;2023-01-29T23:21:47;13.13;;;7.50;;
29774;SDS011;16676;51.202;6.774;2023-01-29T23:25:49;15.23;;;7.35;;
29774;SDS011;16676;51.202;6.774;2023-01-29T23:30:14;11.13;;;6.32;;
29774;SDS011;16676;51.202;6.774;2023-01-29T23:34:17;12.10;;;6.97;;
29774;SDS011;16676;51.202;6.774;2023-01-29T23:38:20;13.45;;;7.03;;
29774;SDS011;16676;51.202;6.774;2023-01-29T23:42:21;11.38;;;6.78;;
29774;SDS011;16676;51.202;6.774;2023-01-29T23:46:23;11.65;;;6.75;;
29774;SDS011;16676;51.202;6.774;2023-01-29T23:50:27;11.45;;;6.28;;
29774;SDS011;16676;51.202;6.774;2023-01-29T23:54:29;12.55;;;7.40;;
29774;SDS011;16676;51.202;6.774;2023-01-29T23:58:31;12.38;;;6.60;;
